Time;durP1;ratioP1;P1;durP2;ratioP2;P2;SDS_P1;SDS_P2;PMS_P1;PMS_P2;Temp;Humidity;BMP_temperature;BMP_pressure;BME280_temperature;BME280_humidity;BME280_pressure;Samples;Min_cycle;Max_cycle;Signal;HPM_P1;HPM_P2
2022/08/18 00:02:19;;;;;;;38.95;35.03;;;;;;;18.79;100.00;101079.59;6182408;23;20079;-73
2022/08/18 00:04:53;;;;;;;39.90;34.22;;;;;;;18.76;100.00;101069.19;6185629;23;20013;-73
2022/08/18 00:07:27;;;;;;;44.83;35.95;;;;;;;18.74;100.00;101082.34;6185458;23;20382;-72
2022/08/18 00:10:01;;;;;;;39.15;35.00;;;;;;;18.76;100.00;101094.66;6185704;23;20048;-73
2022/08/18 00:12:37;;;;;;;39.75;34.60;;;;;;;18.74;100.00;101098.78;6185480;23;20009;-73
2022/08/18 00:15:08;;;;;;;39.85;35.65;;;;;;;18.72;100.00;101095.47;6185342;23;20015;-72
2022/08/18 00:17:35;;;;;;;40.38;35.97;;;;;;;18.72;100.00;101100.97;6186354;23;20355;-73
2022/08/18 00:20:08;;;;;;;40.67;36.28;;;;;;;18.73;100.00;101102.63;6186042;23;20076;-72
2022/08/18 00:22:38;;;;;;;44.28;36.63;;;;;;;18.69;100.00;101094.13;6185680;23;20005;-73
2022/08/18 00:25:05;;;;;;;40.65;35.92;;;;;;;18.65;100.00;101094.97;6186841;23;20004;-73
2022/08/18 00:27:37;;;;;;;41.20;36.58;;;;;;;18.64;100.00;101098.78;6186207;23;20012;-72
2022/08/18 00:30:06;;;;;;;39.50;35.35;;;;;;;18.67;100.00;101099.03;6185093;23;20017;-73
2022/08/18 00:32:43;;;;;;;39.55;35.33;;;;;;;18.67;100.00;101101.78;6185789;23;20423;-73
2022/08/18 00:35:14;;;;;;;39.97;35.20;;;;;;;18.67;100.00;101107.28;6185534;23;20079;-73
2022/08/18 00:37:40;;;;;;;42.05;36.65;;;;;;;18.70;100.00;101108.66;6187464;23;20029;-73
2022/08/18 00:40:07;;;;;;;42.33;37.17;;;;;;;18.68;100.00;101102.63;6185916;23;20393;-73
2022/08/18 00:42:37;;;;;;;40.28;35.97;;;;;;;18.74;100.00;101112.50;6185988;23;20005;-72
2022/08/18 00:45:04;;;;;;;40.80;36.40;;;;;;;18.75;100.00;101123.19;6187196;23;20008;-72
2022/08/18 00:47:30;;;;;;;39.90;34.80;;;;;;;18.73;100.00;101121.81;6184994;23;20013;-72
2022/08/18 00:49:56;;;;;;;40.88;35.53;;;;;;;18.69;100.00;101129.78;6187509;23;20071;-75
2022/08/18 00:52:24;;;;;;;41.17;36.42;;;;;;;18.66;100.00;101122.09;6187881;23;20012;-74
2022/08/18 00:54:52;;;;;;;38.50;34.40;;;;;;;18.63;100.00;101119.06;6187231;23;20036;-76
2022/08/18 00:57:20;;;;;;;40.30;34.75;;;;;;;18.63;100.00;101110.84;6184638;23;20032;-75
2022/08/18 01:00:10;;;;;;;38.17;34.15;;;;;;;18.66;100.00;101110.28;6183775;23;20005;-75
2022/08/18 01:02:40;;;;;;;36.92;33.08;;;;;;;18.63;100.00;101108.09;6183469;23;20036;-75
2022/08/18 01:05:15;;;;;;;37.43;32.17;;;;;;;18.65;100.00;101105.91;6184264;23;20351;-72
2022/08/18 01:07:46;;;;;;;36.15;32.35;;;;;;;18.60;100.00;101110.28;6184445;23;20255;-72
2022/08/18 01:10:21;;;;;;;39.15;33.72;;;;;;;18.59;100.00;101119.59;6185006;23;20008;-72
2022/08/18 01:12:52;;;;;;;38.45;33.67;;;;;;;18.62;100.00;101106.47;6184226;23;19997;-73
2022/08/18 01:15:19;;;;;;;36.80;32.83;;;;;;;18.59;100.00;101099.59;6185526;23;20032;-73
2022/08/18 01:23:22;;;;;;;35.22;31.42;;;;;;;18.41;100.00;101100.94;6185730;23;20024;-72
2022/08/18 01:26:05;;;;;;;36.30;32.45;;;;;;;18.36;100.00;101106.44;6183986;23;20032;-74
2022/08/18 01:28:34;;;;;;;36.03;32.25;;;;;;;18.35;100.00;101102.84;6184399;23;20050;-72
2022/08/18 01:31:00;;;;;;;36.53;32.63;;;;;;;18.33;100.00;101096.84;6183874;23;20063;-72
2022/08/18 01:33:41;;;;;;;37.47;32.47;;;;;;;18.29;100.00;101106.69;6181171;23;20009;-71
2022/08/18 01:36:18;;;;;;;39.25;32.05;;;;;;;18.28;100.00;101101.47;6185661;23;20013;-72
2022/08/18 01:38:46;;;;;;;39.00;32.38;;;;;;;18.24;100.00;101107.50;6185931;23;20005;-72
2022/08/18 01:41:11;;;;;;;36.83;32.03;;;;;;;18.21;100.00;101107.22;6185250;23;20033;-72
2022/08/18 01:43:37;;;;;;;35.42;31.73;;;;;;;18.18;100.00;101103.09;6185771;23;20005;-72
2022/08/18 01:46:04;;;;;;;40.25;32.58;;;;;;;18.16;100.00;101101.72;6183978;23;20005;-72
2022/08/18 01:48:33;;;;;;;34.05;29.98;;;;;;;18.16;100.00;101098.97;6184586;23;20001;-72
2022/08/18 01:51:00;;;;;;;34.80;30.90;;;;;;;18.11;100.00;101104.44;6183437;23;20111;-72
2022/08/18 01:53:26;;;;;;;36.45;30.60;;;;;;;18.14;100.00;101096.50;6183648;23;20009;-72
2022/08/18 01:55:52;;;;;;;35.60;31.55;;;;;;;18.08;100.00;101092.09;6185045;23;20012;-72
2022/08/18 01:58:23;;;;;;;36.28;30.63;;;;;;;18.06;100.00;101092.38;6184041;23;20009;-71
2022/08/18 02:00:49;;;;;;;37.80;30.60;;;;;;;18.06;100.00;101088.81;6181036;23;20553;-73
2022/08/18 02:03:14;;;;;;;32.47;28.98;;;;;;;18.10;100.00;101092.69;6185731;23;20001;-72
2022/08/18 02:05:47;;;;;;;35.00;29.73;;;;;;;18.06;100.00;101094.31;6186510;23;20052;-73
2022/08/18 02:08:14;;;;;;;38.83;29.45;;;;;;;18.09;100.00;101085.53;6214842;23;20001;-72
2022/08/18 02:10:40;;;;;;;33.53;29.70;;;;;;;18.03;100.00;101090.19;6215859;23;20011;-72
2022/08/18 02:13:07;;;;;;;34.38;29.27;;;;;;;17.98;100.00;101087.44;6215264;23;20083;-72
2022/08/18 02:15:33;;;;;;;33.17;29.73;;;;;;;17.95;100.00;101089.88;6215188;23;20071;-72
2022/08/18 02:17:58;;;;;;;33.28;29.77;;;;;;;17.98;100.00;101089.34;6215152;23;20011;-72
2022/08/18 02:20:24;;;;;;;34.25;30.05;;;;;;;17.98;100.00;101092.06;6215048;23;20004;-71
2022/08/18 02:22:49;;;;;;;36.28;28.30;;;;;;;17.93;100.00;101097.53;6214575;23;20440;-72
2022/08/18 02:25:16;;;;;;;33.50;29.50;;;;;;;17.93;100.00;101094.81;6188537;23;20087;-72
2022/08/18 02:27:41;;;;;;;35.05;29.15;;;;;;;17.91;100.00;101102.47;6215423;23;20433;-72
2022/08/18 02:30:09;;;;;;;31.48;28.17;;;;;;;17.96;100.00;101110.69;6214527;23;20005;-73
2022/08/18 02:32:35;;;;;;;37.58;29.85;;;;;;;18.00;100.00;101095.38;6215378;23;20008;-73
2022/08/18 02:35:00;;;;;;;33.22;29.15;;;;;;;18.01;100.00;101097.00;6215080;23;20051;-72
2022/08/18 02:37:26;;;;;;;33.97;28.17;;;;;;;17.98;100.00;101101.13;6188182;23;20004;-72
2022/08/18 02:39:51;;;;;;;34.00;28.15;;;;;;;18.01;100.00;101106.06;6215286;23;20005;-72
2022/08/18 02:42:16;;;;;;;32.45;28.90;;;;;;;18.06;100.00;101099.78;6214889;23;20005;-73
2022/08/18 02:44:42;;;;;;;31.73;27.58;;;;;;;18.06;100.00;101111.53;6214905;23;20015;-73
2022/08/18 02:47:08;;;;;;;31.58;27.38;;;;;;;17.98;100.00;101112.06;6214663;23;20553;-72
2022/08/18 02:49:35;;;;;;;31.17;27.88;;;;;;;18.02;100.00;101120.56;6214755;23;20453;-72
2022/08/18 02:52:01;;;;;;;34.78;26.67;;;;;;;17.99;100.00;101118.38;6187156;23;20043;-73
2022/08/18 02:54:26;;;;;;;31.05;27.85;;;;;;;17.98;100.00;101120.28;6188103;23;20074;-72
2022/08/18 02:56:52;;;;;;;29.30;26.27;;;;;;;17.95;100.00;101109.88;6214866;23;20009;-72
2022/08/18 02:59:24;;;;;;;30.48;27.27;;;;;;;17.91;100.00;101111.50;6214818;23;20028;-72
2022/08/18 03:01:51;;;;;;;32.60;26.83;;;;;;;17.85;100.00;101102.41;6212226;23;20000;-72
2022/08/18 03:04:26;;;;;;;29.58;26.58;;;;;;;17.83;100.00;101101.00;6212930;23;20012;-72
2022/08/18 03:06:52;;;;;;;32.40;26.98;;;;;;;17.79;100.00;101106.22;6185908;23;20012;-72
2022/08/18 03:09:17;;;;;;;32.75;27.38;;;;;;;17.73;100.00;101103.72;6186371;23;20425;-72
2022/08/18 03:11:43;;;;;;;30.83;27.48;;;;;;;17.76;100.00;101104.00;6212552;23;20000;-72
2022/08/18 03:14:09;;;;;;;30.73;27.52;;;;;;;17.80;100.00;101112.50;6214669;23;20005;-72
2022/08/18 03:16:37;;;;;;;29.25;26.20;;;;;;;17.76;100.00;101106.75;6188421;23;20015;-72
2022/08/18 03:19:03;;;;;;;30.08;26.88;;;;;;;17.78;100.00;101109.22;6214346;23;20008;-72
2022/08/18 03:21:30;;;;;;;28.27;25.30;;;;;;;17.76;100.00;101117.69;6213902;23;20007;-72
2022/08/18 03:23:56;;;;;;;30.33;26.70;;;;;;;17.80;100.00;101117.97;6187976;23;20326;-72
2022/08/18 03:26:23;;;;;;;30.20;26.92;;;;;;;17.77;100.00;101129.47;6214579;23;20015;-72
2022/08/18 03:28:51;;;;;;;29.83;25.50;;;;;;;17.74;100.00;101114.41;6188308;23;20087;-73
2022/08/18 03:31:18;;;;;;;32.95;27.85;;;;;;;17.80;100.00;101126.19;6214530;23;20083;-72
2022/08/18 03:33:45;;;;;;;30.88;25.95;;;;;;;17.76;100.00;101123.16;6188305;23;20094;-72
2022/08/18 03:36:17;;;;;;;29.00;25.90;;;;;;;17.75;100.00;101123.44;6213648;23;20079;-72
2022/08/18 03:38:44;;;;;;;28.10;25.20;;;;;;;17.78;100.00;101125.63;6187614;23;20315;-72
2022/08/18 03:41:10;;;;;;;31.02;26.20;;;;;;;17.79;100.00;101127.28;6187775;23;20349;-72
2022/08/18 03:43:36;;;;;;;30.17;26.60;;;;;;;17.74;100.00;101121.78;6214513;23;20005;-72
2022/08/18 03:46:05;;;;;;;28.83;24.55;;;;;;;17.69;100.00;101133.53;6186113;23;20330;-73
2022/08/18 03:48:32;;;;;;;28.25;25.25;;;;;;;17.67;100.00;101122.03;6214760;23;20014;-72
2022/08/18 03:51:13;;;;;;;27.80;24.63;;;;;;;17.68;100.00;101131.91;6214363;23;20054;-72
2022/08/18 03:53:39;;;;;;;;;;;;;;;17.81;100.00;101131.41;6215102;23;20058;-72
2022/08/18 03:56:14;;;;;;;29.15;25.92;;;;;;;17.69;100.00;101134.38;6214527;23;20310;-72
2022/08/18 03:58:48;;;;;;;27.85;24.95;;;;;;;17.66;100.00;101125.84;6187775;23;20591;-72
2022/08/18 04:01:16;;;;;;;28.15;25.20;;;;;;;17.60;100.00;101127.72;6184749;23;20423;-72
2022/08/18 04:03:46;;;;;;;29.48;24.65;;;;;;;17.59;100.00;101119.78;6214813;23;20009;-72
2022/08/18 04:06:17;;;;;;;29.77;26.55;;;;;;;17.61;100.00;101128.56;6181962;23;20525;-72
2022/08/18 04:08:43;;;;;;;31.55;28.13;;;;;;;17.61;100.00;101121.19;6184702;23;20430;-72
2022/08/18 04:11:09;;;;;;;30.63;27.33;;;;;;;17.58;100.00;101120.91;6182656;23;20052;-72
2022/08/18 04:13:36;;;;;;;31.20;27.83;;;;;;;17.59;100.00;101114.31;6184679;23;20455;-72
2022/08/18 04:16:01;;;;;;;31.25;27.88;;;;;;;17.60;100.00;101121.44;6182742;23;20088;-72
2022/08/18 04:18:27;;;;;;;31.02;27.75;;;;;;;17.61;100.00;101121.19;6184607;23;20048;-72
2022/08/18 04:20:52;;;;;;;34.55;28.08;;;;;;;17.58;100.00;101121.72;6184585;23;20055;-73
2022/08/18 04:23:18;;;;;;;32.58;29.23;;;;;;;17.59;100.00;101125.25;6182808;23;20012;-72
2022/08/18 04:25:43;;;;;;;35.53;30.27;;;;;;;17.51;100.00;101121.97;6183000;23;20005;-72
2022/08/18 04:28:08;;;;;;;38.80;31.20;;;;;;;17.59;100.00;101128.84;6182167;23;20090;-72
2022/08/18 04:30:35;;;;;;;36.85;31.73;;;;;;;17.57;100.00;101130.19;6181961;23;20468;-73
2022/08/18 04:33:01;;;;;;;38.47;33.97;;;;;;;17.53;100.00;101125.25;6185116;23;20075;-72
2022/08/18 04:35:28;;;;;;;40.95;32.47;;;;;;;17.59;100.00;101128.84;6186492;23;20434;-72
2022/08/18 04:37:53;;;;;;;37.80;33.22;;;;;;;17.62;100.00;101125.56;6184859;23;20009;-72
2022/08/18 04:40:19;;;;;;;37.45;33.42;;;;;;;17.62;100.00;101128.31;6184501;23;20330;-72
2022/08/18 04:42:44;;;;;;;37.97;32.90;;;;;;;17.61;100.00;101125.84;6186199;23;20072;-72
2022/08/18 04:45:09;;;;;;;41.65;34.45;;;;;;;17.54;100.00;101123.31;6185718;23;20005;-72
2022/08/18 04:47:40;;;;;;;38.97;33.53;;;;;;;17.49;100.00;101126.84;6186084;23;20051;-72
2022/08/18 04:50:06;;;;;;;41.60;34.50;;;;;;;17.43;100.00;101140.78;6185470;23;20005;-72
2022/08/18 04:55:16;;;;;;;42.00;35.63;;;;;;;17.34;100.00;101149.47;6185701;23;20375;-72
2022/08/18 04:57:41;;;;;;;43.33;34.63;;;;;;;17.31;100.00;101146.44;6186117;23;20009;-72
2022/08/18 05:00:11;;;;;;;40.85;34.92;;;;;;;17.37;100.00;101145.38;6183925;23;20009;-72
2022/08/18 05:02:37;;;;;;;37.55;33.38;;;;;;;17.37;100.00;101142.66;6180678;23;20012;-72
2022/08/18 05:05:04;;;;;;;39.10;32.38;;;;;;;17.34;100.00;101137.72;6185823;23;20332;-72
2022/08/18 05:07:29;;;;;;;39.65;33.20;;;;;;;17.30;100.00;101139.31;6184259;23;20430;-72
2022/08/18 05:09:55;;;;;;;41.65;34.80;;;;;;;17.26;100.00;101130.00;6185635;23;20009;-72
2022/08/18 05:12:20;;;;;;;41.88;33.63;;;;;;;17.32;100.00;101153.56;6185341;23;20017;-72
2022/08/18 05:14:46;;;;;;;42.67;33.67;;;;;;;17.27;100.00;101153.50;6185138;23;20734;-72
2022/08/18 05:17:14;;;;;;;42.10;33.08;;;;;;;17.27;100.00;101153.50;6184070;23;20093;-72
2022/08/18 05:19:41;;;;;;;41.55;33.75;;;;;;;17.25;100.00;101152.97;6184098;23;20088;-72
2022/08/18 05:22:06;;;;;;;40.38;32.45;;;;;;;17.37;100.00;101161.81;6185265;23;20088;-72
2022/08/18 05:24:34;;;;;;;40.70;33.22;;;;;;;17.36;100.00;101157.41;6184014;23;20363;-72
2022/08/18 05:27:02;;;;;;;39.95;31.15;;;;;;;17.38;100.00;101166.19;6186149;23;20001;-72
2022/08/18 05:29:35;;;;;;;38.63;33.15;;;;;;;17.36;100.00;101151.94;6185441;23;20009;-72
2022/08/18 05:32:02;;;;;;;39.65;32.15;;;;;;;17.42;100.00;101155.53;6184333;23;20005;-72
2022/08/18 05:34:28;;;;;;;40.13;32.70;;;;;;;17.42;100.00;101150.91;6184300;23;20009;-72
2022/08/18 05:37:00;;;;;;;37.83;31.77;;;;;;;17.49;100.00;101156.94;6184294;23;20342;-72
2022/08/18 05:39:44;;;;;;;39.55;32.95;;;;;;;17.50;100.00;101158.59;6185883;23;20425;-73
2022/08/18 05:42:20;;;;;;;50.47;32.58;;;;;;;17.51;100.00;101156.69;6183892;23;20047;-72
2022/08/18 05:44:50;;;;;;;41.97;32.58;;;;;;;17.51;100.00;101164.91;6184115;23;20000;-71
2022/08/18 05:47:24;;;;;;;42.65;33.50;;;;;;;17.50;100.00;101166.00;6185077;23;20015;-70
2022/08/18 05:49:51;;;;;;;38.45;31.88;;;;;;;17.48;100.00;101159.94;6185644;23;20427;-70
2022/08/18 05:52:53;;;;;;;42.78;32.35;;;;;;;17.54;100.00;101169.84;6183880;23;20001;-72
2022/08/18 05:58:32;;;;;;;39.83;31.83;;;;;;;17.59;100.00;101169.03;6185221;23;20020;-73
2022/08/18 06:01:02;;;;;;;40.00;30.80;;;;;;;17.61;100.00;101175.91;6182039;23;20001;-70
2022/08/18 06:03:41;;;;;;;37.13;30.75;;;;;;;17.66;100.00;101178.69;6184618;23;20411;-73
2022/08/18 06:06:18;;;;;;;39.97;30.15;;;;;;;17.67;100.00;101171.28;6191952;23;20012;-71
2022/08/18 06:09:09;;;;;;;35.58;30.23;;;;;;;17.62;100.00;101177.56;6188213;23;20019;-71
2022/08/18 06:11:34;;;;;;;35.80;29.85;;;;;;;17.62;100.00;101172.09;6215818;23;20012;-73
2022/08/18 06:14:00;;;;;;;36.72;29.88;;;;;;;17.66;100.00;101175.13;6215229;23;20005;-72
2022/08/18 06:17:06;;;;;;;43.50;31.60;;;;;;;17.69;100.00;101175.44;6214875;23;20011;-72
2022/08/18 06:20:02;;;;;;;38.45;30.98;;;;;;;17.65;100.00;101168.81;6193618;23;20011;-72
2022/08/18 06:22:40;;;;;;;37.42;32.22;;;;;;;17.59;100.00;101160.84;6215259;23;20013;-72
2022/08/18 06:25:33;;;;;;;39.28;31.58;;;;;;;17.61;100.00;101169.63;6215541;23;20005;-72
2022/08/18 06:28:12;;;;;;;41.72;31.95;;;;;;;17.61;100.00;101181.38;6188773;23;20062;-72
2022/08/18 06:30:40;;;;;;;43.10;33.60;;;;;;;17.69;100.00;101188.25;6187988;23;20442;-73
2022/08/18 06:33:15;;;;;;;37.45;31.77;;;;;;;17.67;100.00;101190.44;6188146;23;20084;-72
2022/08/18 06:35:49;;;;;;;36.22;30.63;;;;;;;17.64;100.00;101188.25;6188362;23;20005;-75
2022/08/18 06:41:15;;;;;;;37.67;32.95;;;;;;;17.78;100.00;101192.16;6211799;23;20019;-73
2022/08/18 06:43:56;;;;;;;40.42;32.65;;;;;;;17.77;100.00;101201.47;6187805;23;20012;-73
2022/08/18 06:46:32;;;;;;;40.20;32.80;;;;;;;17.84;100.00;101196.56;6214204;23;20050;-74
2022/08/18 06:49:02;;;;;;;42.53;33.72;;;;;;;17.91;100.00;101192.81;6188170;23;20020;-74
2022/08/18 06:51:28;;;;;;;37.70;32.13;;;;;;;17.95;100.00;101199.38;6214036;23;20004;-71
2022/08/18 06:54:05;;;;;;;41.10;32.72;;;;;;;17.99;100.00;101189.56;6213938;23;20013;-73
2022/08/18 06:56:37;;;;;;;42.35;33.30;;;;;;;18.00;100.00;101189.28;6214255;23;20000;-71
2022/08/18 06:59:20;;;;;;;36.60;28.88;;;;;;;18.06;100.00;101199.19;6187942;23;20484;-74
2022/08/18 07:01:49;;;;;;;32.67;27.88;;;;;;;17.99;100.00;101197.78;6211166;23;20076;-73
2022/08/18 07:04:30;;;;;;;33.92;28.77;;;;;;;17.98;100.00;101196.97;6187557;23;20012;-74
2022/08/18 07:06:55;;;;;;;34.47;28.07;;;;;;;18.01;100.00;101201.91;6214700;23;20020;-74
2022/08/18 07:09:34;;;;;;;42.65;31.83;;;;;;;18.08;100.00;101200.84;6213897;23;20419;-73
2022/08/18 07:12:06;;;;;;;39.45;33.10;;;;;;;18.11;100.00;101201.13;6214530;23;20001;-74
2022/08/18 07:14:42;;;;;;;37.25;31.85;;;;;;;18.15;100.00;101196.75;6213611;23;20067;-76
2022/08/18 07:17:17;;;;;;;38.08;32.72;;;;;;;18.30;100.00;101204.22;6214026;23;20009;-71
2022/08/18 07:19:43;;;;;;;35.20;29.98;;;;;;;18.31;100.00;101202.28;6214258;23;20032;-74
2022/08/18 07:22:17;;;;;;;36.08;28.92;;;;;;;18.34;100.00;101205.34;6214040;23;20008;-72
2022/08/18 07:24:45;;;;;;;33.55;28.73;;;;;;;18.29;100.00;101201.75;6214058;23;20042;-74
2022/08/18 07:27:14;;;;;;;32.63;28.63;;;;;;;18.30;100.00;101203.38;6214153;23;20043;-72
2022/08/18 07:30:32;;;;;;;34.67;27.63;;;;;;;18.35;100.00;101206.16;6187703;23;20009;-74
2022/08/18 07:33:12;;;;;;;34.28;28.35;;;;;;;18.45;100.00;101200.72;6151232;23;20465;-72
2022/08/18 07:35:44;;;;;;;36.70;27.75;;;;;;;18.53;100.00;101205.66;6205870;23;20016;-73
2022/08/18 07:38:16;;;;;;;32.22;28.75;;;;;;;18.63;100.00;101201.28;6214512;23;20005;-72
2022/08/18 07:40:50;;;;;;;28.23;25.15;;;;;;;18.65;100.00;101196.38;6214398;23;20005;-71
2022/08/18 07:43:39;;;;;;;28.38;23.85;;;;;;;18.60;100.00;101203.47;6187498;23;20440;-71
2022/08/18 07:46:12;;;;;;;26.35;22.00;;;;;;;18.56;100.00;101202.38;6194751;23;20051;-75
2022/08/18 07:48:37;;;;;;;27.38;22.55;;;;;;;18.63;100.00;101213.09;6213493;23;20005;-74
2022/08/18 07:51:23;;;;;;;29.20;24.00;;;;;;;18.60;100.00;101211.72;6214040;23;20429;-72
2022/08/18 07:54:31;;;;;;;26.27;22.05;;;;;;;18.62;100.00;101205.94;6214205;23;20453;-72
2022/08/18 07:57:15;;;;;;;27.17;20.85;;;;;;;18.70;100.00;101208.16;6187440;23;20048;-71
2022/08/18 07:59:53;;;;;;;26.05;23.25;;;;;;;18.83;100.00;101212.28;6186561;23;20147;-71
2022/08/18 08:02:31;;;;;;;26.95;24.05;;;;;;;18.98;100.00;101205.19;6211043;23;20051;-73
2022/08/18 08:05:23;;;;;;;28.25;22.60;;;;;;;19.00;100.00;101205.78;6186538;23;20009;-73
2022/08/18 08:07:56;;;;;;;23.75;21.23;;;;;;;18.91;100.00;101206.28;6183542;23;20361;-73
2022/08/18 08:10:28;;;;;;;26.13;21.20;;;;;;;18.96;100.00;101205.47;6184089;23;20032;-73
2022/08/18 08:13:07;;;;;;;27.60;20.90;;;;;;;19.00;100.00;101211.25;6183694;23;20012;-73
2022/08/18 08:16:00;;;;;;;19.75;16.90;;;;;;;19.01;100.00;101208.25;6185639;23;20501;-73
2022/08/18 08:18:34;;;;;;;21.25;15.90;;;;;;;19.05;100.00;101211.25;6183869;23;20032;-72
2022/08/18 08:21:13;;;;;;;21.58;17.70;;;;;;;19.08;100.00;101205.22;6185490;23;20005;-72
2022/08/18 08:23:53;;;;;;;23.15;20.65;;;;;;;19.28;100.00;101207.16;6184153;23;20017;-72
2022/08/18 08:26:46;;;;;;;24.75;20.70;;;;;;;19.40;100.00;101210.44;6185634;23;20025;-72
2022/08/18 08:29:36;;;;;;;24.55;18.83;;;;;;;19.46;100.00;101220.31;6185718;23;20008;-73
2022/08/18 08:32:08;;;;;;;18.77;16.88;;;;;;;19.48;100.00;101220.03;6185429;23;20029;-72
2022/08/18 08:34:43;;;;;;;;;;;;;;;19.60;100.00;101214.25;6185870;23;20327;-71
2022/08/18 08:37:14;;;;;;;20.55;16.70;;;;;;;19.58;100.00;101214.53;6186106;23;19991;-72
2022/08/18 08:39:54;;;;;;;21.45;17.33;;;;;;;19.69;100.00;101215.34;6185911;23;20051;-73
2022/08/18 08:42:28;;;;;;;21.20;17.25;;;;;;;19.74;100.00;101220.00;6185581;23;20028;-73
2022/08/18 08:45:02;;;;;;;22.17;18.30;;;;;;;19.72;100.00;101222.22;6187979;23;20031;-73
2022/08/18 08:47:33;;;;;;;23.77;18.33;;;;;;;19.72;100.00;101225.75;6185515;23;20040;-71
2022/08/18 08:50:07;;;;;;;23.75;17.30;;;;;;;19.71;100.00;101226.03;6186419;23;20001;-71
2022/08/18 08:52:57;;;;;;;21.17;17.33;;;;;;;19.70;100.00;101235.38;6186058;23;20453;-71
2022/08/18 08:55:40;;;;;;;19.52;17.17;;;;;;;19.69;100.00;101239.19;6185673;23;20473;-71
2022/08/18 08:58:25;;;;;;;21.00;17.00;;;;;;;19.68;100.00;101227.41;6183580;23;20335;-70
2022/08/18 09:00:52;;;;;;;19.75;17.13;;;;;;;19.71;100.00;101224.09;6183466;23;20004;-71
2022/08/18 09:03:47;;;;;;;22.55;16.48;;;;;;;19.80;100.00;101224.41;6184371;23;20067;-71
2022/08/18 09:06:29;;;;;;;18.48;16.08;;;;;;;19.88;100.00;101231.25;6193568;23;20318;-71
2022/08/18 09:09:32;;;;;;;18.05;16.15;;;;;;;20.11;100.00;101219.66;6215887;23;20040;-71
2022/08/18 09:12:10;;;;;;;19.30;16.25;;;;;;;20.35;100.00;101230.81;6216153;23;20126;-71
2022/08/18 09:14:44;;;;;;;19.27;15.20;;;;;;;20.43;100.00;101223.09;6215115;23;20346;-71
2022/08/18 09:17:36;;;;;;;20.05;15.23;;;;;;;20.52;100.00;101235.13;6215901;23;20040;-71
2022/08/18 09:20:24;;;;;;;17.02;15.23;;;;;;;20.55;100.00;101237.31;6216189;23;20004;-71
2022/08/18 09:22:52;;;;;;;16.05;13.80;;;;;;;20.54;100.00;101235.66;6189486;23;20009;-71
2022/08/18 09:25:36;;;;;;;14.75;11.75;;;;;;;20.56;100.00;101230.69;6216174;23;20011;-71
2022/08/18 09:28:10;;;;;;;14.93;11.35;;;;;;;20.60;100.00;101230.97;6215526;23;20361;-74
2022/08/18 09:30:41;;;;;;;12.95;11.35;;;;;;;20.70;100.00;101231.75;6215289;23;20322;-71
2022/08/18 09:33:33;;;;;;;13.52;9.65;;;;;;;20.77;100.00;101223.19;6215130;23;20008;-77
2022/08/18 09:36:05;;;;;;;13.05;10.20;;;;;;;20.73;100.00;101219.38;6188522;23;20004;-73
2022/08/18 09:41:32;;;;;;;10.98;9.43;;;;;;;20.66;100.00;101218.88;6215406;23;20035;-75
2022/08/18 09:44:09;;;;;;;14.00;9.40;;;;;;;20.70;100.00;101223.50;6188840;23;20015;-76
2022/08/18 09:46:46;;;;;;;11.85;9.75;;;;;;;20.73;100.00;101222.13;6189174;23;20476;-75
2022/08/18 09:49:24;;;;;;;13.25;10.07;;;;;;;20.73;100.00;101222.13;6215560;23;20083;-76
2022/08/18 09:51:55;;;;;;;10.57;9.18;;;;;;;20.75;100.00;101219.91;6215313;23;20001;-76
2022/08/18 09:54:23;;;;;;;13.82;9.85;;;;;;;20.78;100.00;101210.28;6188845;23;20008;-74
2022/08/18 09:56:48;;;;;;;13.85;10.07;;;;;;;20.84;100.00;101212.69;6187948;23;20020;-75
2022/08/18 09:59:35;;;;;;;16.57;10.63;;;;;;;20.87;100.00;101214.88;6187736;23;20008;-75
2022/08/18 10:02:09;;;;;;;9.85;8.85;;;;;;;20.87;100.00;101214.06;6155040;23;20248;-75
2022/08/18 10:04:47;;;;;;;13.07;9.20;;;;;;;20.88;100.00;101218.47;6185327;23;20055;-76
2022/08/18 10:07:39;;;;;;;10.55;8.35;;;;;;;20.96;100.00;101220.59;6188196;23;20009;-77
2022/08/18 10:10:31;;;;;;;9.45;7.43;;;;;;;20.98;100.00;101221.13;6187813;23;20043;-76
2022/08/18 10:13:32;;;;;;;16.00;8.38;;;;;;;21.08;100.00;101211.16;6188061;23;20066;-76
2022/08/18 10:16:25;;;;;;;8.75;7.68;;;;;;;21.23;100.00;101205.53;6187107;23;20488;-75
2022/08/18 10:19:09;;;;;;;12.00;8.20;;;;;;;21.31;100.00;101213.16;6187687;23;20005;-75
2022/08/18 10:22:00;;;;;;;11.48;8.20;;;;;;;21.47;100.00;101208.34;6187379;23;20418;-77
2022/08/18 10:25:07;;;;;;;12.83;9.30;;;;;;;21.58;100.00;101209.09;6187815;23;20334;-79
2022/08/18 10:27:45;;;;;;;15.02;9.63;;;;;;;21.64;100.00;101216.19;6068895;23;20002;-78
2022/08/18 10:30:36;;;;;;;11.77;9.27;;;;;;;21.61;100.00;101216.78;6068649;23;20033;-78
2022/08/18 10:33:10;;;;;;;12.68;8.38;;;;;;;21.52;100.00;101204.75;6151904;23;20009;-77
2022/08/18 10:35:35;;;;;;;11.15;7.47;;;;;;;21.61;100.00;101204.94;6185092;23;20549;-74
2022/08/18 10:38:08;;;;;;;11.85;8.82;;;;;;;21.59;100.00;101189.53;6215097;23;20011;-77
2022/08/18 10:40:35;;;;;;;8.98;7.80;;;;;;;21.59;100.00;101203.28;6188474;23;20009;-77
2022/08/18 10:43:09;;;;;;;9.93;8.20;;;;;;;21.66;100.00;101202.94;6188566;23;20354;-77
2022/08/18 10:45:36;;;;;;;13.73;8.93;;;;;;;21.61;100.00;101200.25;6188293;23;20382;-77
2022/08/18 10:48:30;;;;;;;11.00;8.52;;;;;;;21.58;100.00;101206.34;6188149;23;20011;-76
2022/08/18 10:51:05;;;;;;;13.05;8.40;;;;;;;21.54;100.00;101205.28;6187581;23;20009;-76
2022/08/18 10:54:03;;;;;;;8.95;7.65;;;;;;;21.55;100.00;101210.47;6187389;23;20008;-76
2022/08/18 10:56:31;;;;;;;11.27;8.10;;;;;;;21.48;100.00;101214.66;6188323;23;20008;-76
2022/08/18 10:59:34;;;;;;;9.40;7.30;;;;;;;21.51;100.00;101208.59;6215516;23;20395;-77
2022/08/18 11:02:28;;;;;;;11.70;8.32;;;;;;;21.49;100.00;101210.81;6185594;23;20000;-76
2022/08/18 11:04:54;;;;;;;8.68;7.32;;;;;;;21.46;100.00;101214.13;6188381;23;20012;-77
2022/08/18 11:07:24;;;;;;;10.73;7.20;;;;;;;21.43;99.77;101205.34;6187162;23;20036;-76
2022/08/18 11:09:52;;;;;;;9.27;7.93;;;;;;;21.46;97.02;101208.63;6187941;23;20337;-75
2022/08/18 11:12:47;;;;;;;8.30;7.32;;;;;;;21.52;100.00;101211.06;6188469;23;20442;-76
2022/08/18 11:15:29;;;;;;;9.00;7.45;;;;;;;21.52;96.45;101196.50;6188306;23;20059;-76
2022/08/18 11:18:16;;;;;;;10.20;7.90;;;;;;;21.57;98.79;101200.03;6188061;23;20039;-76
2022/08/18 11:20:42;;;;;;;9.60;8.35;;;;;;;21.68;98.83;101195.22;6188203;23;20008;-76
2022/08/18 11:23:14;;;;;;;8.82;7.88;;;;;;;21.84;95.96;101184.03;6187420;23;20012;-77
2022/08/18 11:25:40;;;;;;;;;;;;;;;22.02;100.00;101186.00;6188490;23;20009;-76
2022/08/18 11:28:22;;;;;;;12.13;8.63;;;;;;;22.22;96.55;101176.69;6188192;23;19943;-77
2022/08/18 11:30:52;;;;;;;9.25;7.47;;;;;;;22.31;92.74;101168.56;6188121;23;20012;-76
2022/08/18 11:33:20;;;;;;;11.02;7.53;;;;;;;22.36;92.31;101171.28;6187106;23;20326;-76
2022/08/18 11:35:52;;;;;;;9.70;6.97;;;;;;;22.44;86.85;101176.13;6187029;23;20009;-76
2022/08/18 11:38:18;;;;;;;8.82;5.93;;;;;;;22.47;83.55;101178.28;6186729;23;20079;-75
2022/08/18 11:40:45;;;;;;;10.20;6.90;;;;;;;22.45;82.85;101172.25;6187322;23;20066;-76
2022/08/18 11:43:38;;;;;;;8.23;6.00;;;;;;;22.59;88.30;101168.75;6187135;23;20414;-77
2022/08/18 11:46:19;;;;;;;13.73;6.78;;;;;;;22.69;86.29;101168.59;6182672;23;20004;-77
2022/08/18 11:48:48;;;;;;;10.50;8.02;;;;;;;22.82;83.67;101158.72;6183364;23;20009;-76
2022/08/18 11:51:32;;;;;;;9.20;7.07;;;;;;;22.97;82.27;101163.19;6186437;23;20005;-77